RJEB(METAR)
07/17 15:00
METAR RJEB 170600Z 02004KT 330V070 9999 FEW050 SCT130 22/19 Q1012
RMK 2CU050 3AC130 A2989=
戻る
トップページへ戻る
IMOC Co,.Ltd.